Time;durP1;ratioP1;P1;durP2;ratioP2;P2;SDS_P1;SDS_P2;PMS_P1;PMS_P2;Temp;Humidity;BMP_temperature;BMP_pressure;BME280_temperature;BME280_humidity;BME280_pressure;Samples;Min_cycle;Max_cycle;Signal;HPM_P1;HPM_P2
2022/07/03 00:01:26;;;;;;;29.52;5.88;;;;;;;16.61;100.00;98227.44;5040028;28;20037;-57
2022/07/03 00:03:52;;;;;;;32.45;5.95;;;;;;;16.42;100.00;98240.06;5041112;28;20017;-59
2022/07/03 00:06:18;;;;;;;26.42;5.47;;;;;;;16.48;100.00;98232.59;5040226;28;20064;-58
2022/07/03 00:08:43;;;;;;;34.55;6.43;;;;;;;16.49;100.00;98233.47;5041138;28;20109;-57
2022/07/03 00:11:08;;;;;;;26.85;5.55;;;;;;;16.27;100.00;98229.50;5039319;28;20048;-58
2022/07/03 00:13:34;;;;;;;30.23;5.70;;;;;;;16.38;100.00;98228.84;5041141;28;20029;-57
2022/07/03 00:16:00;;;;;;;30.75;5.82;;;;;;;16.59;100.00;98229.31;5040652;28;20136;-57
2022/07/03 00:18:25;;;;;;;31.90;6.00;;;;;;;16.37;100.00;98235.88;5041503;28;20483;-56
2022/07/03 00:21:03;;;;;;;29.48;5.88;;;;;;;16.51;100.00;98236.84;5039287;28;20040;-57
2022/07/03 00:23:34;;;;;;;21.83;5.13;;;;;;;16.41;100.00;98233.91;5040641;28;20021;-57
2022/07/03 00:26:01;;;;;;;21.73;5.30;;;;;;;16.29;100.00;98230.25;5040006;28;20068;-58
2022/07/03 00:28:28;;;;;;;30.05;5.85;;;;;;;16.50;100.00;98230.72;5040714;28;20037;-57
2022/07/03 00:30:55;;;;;;;26.80;5.70;;;;;;;16.32;100.00;98231.84;5038914;28;20051;-57
2022/07/03 00:33:21;;;;;;;27.30;5.90;;;;;;;16.29;100.00;98226.78;5040382;28;20079;-57
2022/07/03 00:35:49;;;;;;;27.73;5.53;;;;;;;16.33;100.00;98217.75;5040477;28;20147;-59
2022/07/03 00:38:17;;;;;;;32.45;5.93;;;;;;;16.41;100.00;98230.44;5040380;28;20087;-57
2022/07/03 00:40:43;;;;;;;25.80;5.32;;;;;;;16.36;100.00;98223.69;5039103;28;20764;-57
2022/07/03 00:43:09;;;;;;;24.33;5.10;;;;;;;16.44;100.00;98222.38;5041122;28;20036;-57
2022/07/03 00:45:36;;;;;;;26.73;5.53;;;;;;;16.22;100.00;98226.31;5039766;28;20037;-57
2022/07/03 00:48:02;;;;;;;26.05;5.85;;;;;;;16.05;100.00;98219.44;5039871;28;20779;-57
2022/07/03 00:50:35;;;;;;;40.17;6.47;;;;;;;15.84;100.00;98221.53;5039468;28;20120;-57
2022/07/03 00:53:02;;;;;;;24.40;5.18;;;;;;;15.98;100.00;98224.19;5041348;28;20033;-59
2022/07/03 00:55:28;;;;;;;32.10;6.07;;;;;;;15.90;100.00;98215.94;5039687;28;20045;-58
2022/07/03 00:57:56;;;;;;;26.15;5.25;;;;;;;16.03;100.00;98216.03;5040603;28;20032;-57
2022/07/03 01:00:22;;;;;;;34.72;6.10;;;;;;;16.18;100.00;98214.28;5038002;28;20037;-56
2022/07/03 01:02:56;;;;;;;30.67;5.55;;;;;;;16.19;100.00;98216.81;5040145;28;20071;-57
2022/07/03 01:05:42;;;;;;;27.08;5.47;;;;;;;16.07;100.00;98211.44;5039712;28;20044;-57
2022/07/03 01:08:11;;;;;;;30.48;5.63;;;;;;;16.19;100.00;98216.81;5041014;28;20115;-57
2022/07/03 01:10:56;;;;;;;30.55;5.68;;;;;;;16.51;100.00;98211.34;5038431;28;20037;-57
2022/07/03 01:13:58;;;;;;;25.02;5.10;;;;;;;16.42;100.00;98201.41;5040057;28;20036;-58
2022/07/03 01:16:30;;;;;;;24.90;5.28;;;;;;;16.04;100.00;98212.47;5040652;28;20064;-56
2022/07/03 01:19:04;;;;;;;29.50;5.43;;;;;;;16.14;100.00;98212.78;5041069;28;20029;-58
2022/07/03 01:21:49;;;;;;;30.83;5.95;;;;;;;15.82;100.00;98209.41;5038904;28;20045;-58
2022/07/03 01:24:33;;;;;;;20.50;4.75;;;;;;;15.76;100.00;98219.34;5040520;28;20647;-57
2022/07/03 01:27:06;;;;;;;25.95;5.20;;;;;;;15.74;100.00;98215.13;5039463;28;20049;-58
2022/07/03 01:29:44;;;;;;;26.52;5.50;;;;;;;15.67;100.00;98208.50;5039554;28;20044;-57
2022/07/03 01:32:12;;;;;;;28.55;5.65;;;;;;;15.42;100.00;98205.53;5038626;28;20044;-57
2022/07/03 01:34:44;;;;;;;31.10;6.03;;;;;;;15.49;100.00;98205.16;5040415;28;20082;-58
2022/07/03 01:37:14;;;;;;;27.83;5.50;;;;;;;15.56;100.00;98204.72;5039329;28;20041;-57
2022/07/03 01:39:44;;;;;;;33.70;6.13;;;;;;;15.45;100.00;98198.38;5039253;28;20848;-57
2022/07/03 01:42:12;;;;;;;30.00;5.47;;;;;;;15.39;100.00;98210.09;5038372;28;20123;-57
2022/07/03 01:44:40;;;;;;;29.85;5.57;;;;;;;15.34;100.00;98206.88;5040197;28;20039;-58
2022/07/03 01:47:06;;;;;;;32.65;5.88;;;;;;;15.57;100.00;98200.31;5039500;28;20045;-57
2022/07/03 01:49:32;;;;;;;32.60;5.93;;;;;;;15.38;100.00;98208.41;5039089;28;20090;-58
2022/07/03 01:52:00;;;;;;;33.88;6.05;;;;;;;15.34;100.00;98199.00;5037208;28;20487;-57
2022/07/03 01:54:26;;;;;;;31.40;5.57;;;;;;;15.64;100.00;98204.28;5039680;28;20025;-57
2022/07/03 01:56:54;;;;;;;35.95;6.40;;;;;;;15.48;100.00;98199.06;5038755;28;20044;-57
2022/07/03 01:59:19;;;;;;;30.08;5.60;;;;;;;15.14;100.00;98195.72;5038816;28;20025;-57
2022/07/03 02:01:57;;;;;;;31.42;6.13;;;;;;;15.09;100.00;98205.66;5038057;28;20502;-57
2022/07/03 02:04:31;;;;;;;28.25;5.90;;;;;;;15.22;100.00;98204.03;5043476;28;20738;-59
2022/07/03 02:07:26;;;;;;;25.63;5.00;;;;;;;15.40;100.00;98201.28;5043219;28;20050;-57
2022/07/03 02:10:09;;;;;;;30.70;5.80;;;;;;;15.20;100.00;98199.78;5005487;28;20041;-57
2022/07/03 02:12:40;;;;;;;27.65;5.18;;;;;;;15.35;100.00;98203.34;5042894;28;20049;-57
2022/07/03 02:15:10;;;;;;;25.92;5.18;;;;;;;15.54;100.00;98203.13;5043114;28;20025;-58
2022/07/03 02:17:43;;;;;;;28.02;5.20;;;;;;;15.39;100.00;98204.84;5043356;28;20025;-57
2022/07/03 02:20:09;;;;;;;40.95;6.93;;;;;;;15.02;100.00;98202.53;5042316;28;20039;-56
2022/07/03 02:22:40;;;;;;;26.42;5.55;;;;;;;14.81;100.00;98206.31;5042948;28;20020;-57
2022/07/03 02:25:18;;;;;;;28.10;6.00;;;;;;;15.23;100.00;98200.44;5043151;28;20052;-57
2022/07/03 02:27:56;;;;;;;28.23;5.57;;;;;;;15.15;100.00;98202.69;5042662;28;20811;-57
2022/07/03 02:30:27;;;;;;;36.35;6.28;;;;;;;15.02;100.00;98199.06;5040473;28;20033;-57
2022/07/03 02:32:55;;;;;;;29.02;5.65;;;;;;;14.93;100.00;98207.44;5043216;28;20032;-57
2022/07/03 02:35:47;;;;;;;29.52;5.93;;;;;;;14.76;100.00;98200.47;5042025;28;20234;-57
2022/07/03 02:38:20;;;;;;;30.00;5.95;;;;;;;14.75;100.00;98210.13;5039110;28;20033;-57
2022/07/03 02:41:02;;;;;;;26.92;5.88;;;;;;;14.89;100.00;98205.91;5040731;28;20037;-57
2022/07/03 02:43:38;;;;;;;32.58;6.28;;;;;;;14.67;100.00;98201.84;5042965;28;20047;-58
2022/07/03 02:49:29;;;;;;;29.67;5.93;;;;;;;14.70;100.00;98206.06;5042252;28;20632;-57
2022/07/03 02:52:20;;;;;;;29.67;5.68;;;;;;;14.96;100.00;98202.00;5040230;28;20052;-57
2022/07/03 02:54:47;;;;;;;35.63;6.32;;;;;;;14.64;100.00;98199.38;5042358;28;20770;-57
2022/07/03 02:57:16;;;;;;;23.80;5.22;;;;;;;14.66;100.00;98205.38;5041787;28;20045;-57
2022/07/03 02:59:57;;;;;;;31.52;6.47;;;;;;;14.61;100.00;98196.91;5041568;28;20021;-59
2022/07/03 03:02:46;;;;;;;26.88;5.43;;;;;;;14.76;100.00;98206.59;5041549;28;20033;-60
2022/07/03 03:05:20;;;;;;;24.55;5.72;;;;;;;14.87;100.00;98202.50;5040359;28;20033;-59
2022/07/03 03:07:53;;;;;;;38.63;6.80;;;;;;;14.52;100.00;98203.50;5041965;28;20110;-58
2022/07/03 03:10:20;;;;;;;28.88;6.25;;;;;;;14.42;100.00;98207.53;5040420;28;20039;-58
2022/07/03 03:12:58;;;;;;;32.50;6.22;;;;;;;14.62;100.00;98209.13;5042673;28;20086;-59
2022/07/03 03:15:29;;;;;;;24.42;5.68;;;;;;;14.51;100.00;98206.19;5041438;28;20109;-59
2022/07/03 03:18:00;;;;;;;39.92;6.40;;;;;;;14.58;100.00;98212.84;5041765;28;20041;-58
2022/07/03 03:20:30;;;;;;;30.48;5.95;;;;;;;14.63;100.00;98219.53;5039583;28;20545;-57
2022/07/03 03:23:02;;;;;;;32.13;6.38;;;;;;;14.36;100.00;98219.19;5041357;28;20024;-57
2022/07/03 03:25:28;;;;;;;29.83;5.88;;;;;;;14.72;100.00;98214.72;5042094;28;20057;-57
2022/07/03 03:27:53;;;;;;;26.67;5.75;;;;;;;14.40;100.00;98225.13;5041835;28;20159;-57
2022/07/03 03:30:19;;;;;;;25.45;5.70;;;;;;;14.64;100.00;98212.50;5041731;28;20040;-58
2022/07/03 03:32:45;;;;;;;27.10;6.30;;;;;;;14.36;100.00;98219.19;5041497;28;20669;-57
2022/07/03 03:35:10;;;;;;;37.92;6.53;;;;;;;14.58;100.00;98218.09;5041578;28;20132;-57
2022/07/03 03:37:36;;;;;;;33.30;6.50;;;;;;;14.38;100.00;98230.47;5041732;28;20042;-55
2022/07/03 03:40:03;;;;;;;48.45;7.90;;;;;;;14.29;100.00;98217.00;5040126;28;20064;-55
2022/07/03 03:42:28;;;;;;;30.33;6.30;;;;;;;14.30;100.00;98226.53;5041901;28;20084;-58
2022/07/03 03:44:53;;;;;;;31.40;6.53;;;;;;;14.34;100.00;98220.22;5042086;28;20421;-57
2022/07/03 03:47:19;;;;;;;34.83;6.47;;;;;;;14.20;100.00;98218.31;5040785;28;20064;-57
2022/07/03 03:49:44;;;;;;;30.30;5.78;;;;;;;14.00;100.00;98220.19;5041429;28;20029;-57
2022/07/03 03:52:10;;;;;;;25.88;5.65;;;;;;;14.59;100.00;98214.53;5039863;28;20112;-58
2022/07/03 03:54:35;;;;;;;28.25;5.20;;;;;;;14.90;100.00;98212.84;5040922;28;20025;-57
2022/07/03 03:57:16;;;;;;;29.23;5.78;;;;;;;15.00;100.00;98211.44;5040870;28;20466;-56
2022/07/03 03:59:41;;;;;;;30.08;5.68;;;;;;;15.25;100.00;98204.78;5042130;28;20064;-55
2022/07/03 04:02:06;;;;;;;29.67;5.78;;;;;;;15.29;100.00;98198.41;5039789;28;20072;-60
2022/07/03 04:04:32;;;;;;;29.88;5.75;;;;;;;15.53;100.00;98202.28;5041545;28;20024;-56
2022/07/03 04:06:57;;;;;;;32.20;5.53;;;;;;;15.94;100.00;98206.91;5040534;28;20040;-56
2022/07/03 04:09:22;;;;;;;23.05;5.13;;;;;;;16.36;100.00;98207.88;5040910;28;20064;-56
2022/07/03 04:11:48;;;;;;;28.90;5.63;;;;;;;16.00;100.00;98208.31;5039848;28;20083;-57
2022/07/03 04:14:13;;;;;;;29.35;5.97;;;;;;;15.60;100.00;98208.00;5040894;28;20132;-57
2022/07/03 04:16:38;;;;;;;33.88;6.18;;;;;;;15.76;100.00;98200.13;5040260;28;20537;-58
2022/07/03 04:19:04;;;;;;;25.70;5.13;;;;;;;17.42;100.00;98191.59;5040592;28;20586;-55
2022/07/03 04:21:29;;;;;;;29.02;5.50;;;;;;;19.18;100.00;98182.97;5039398;28;20082;-55
2022/07/03 04:23:55;;;;;;;24.38;5.15;;;;;;;19.85;100.00;98179.78;5041145;28;20021;-58
2022/07/03 04:26:20;;;;;;;24.05;5.10;;;;;;;19.11;100.00;98195.78;5040118;28;20463;-57
2022/07/03 04:28:45;;;;;;;28.50;5.68;;;;;;;19.41;100.00;98186.56;5040523;28;20074;-57
2022/07/03 04:31:11;;;;;;;23.77;4.95;;;;;;;21.10;100.00;98183.25;5039219;28;20200;-58
2022/07/03 04:33:36;;;;;;;25.90;5.38;;;;;;;19.54;100.00;98186.50;5040286;28;20140;-58
2022/07/03 04:36:01;;;;;;;25.70;5.38;;;;;;;19.35;100.00;98182.56;5040141;28;20041;-57
2022/07/03 04:38:27;;;;;;;21.58;4.80;;;;;;;20.35;100.00;98176.81;5040386;28;20020;-57
2022/07/03 04:40:52;;;;;;;24.40;5.03;;;;;;;19.82;100.00;98180.84;5038979;28;20095;-58
2022/07/03 04:43:18;;;;;;;19.73;4.68;;;;;;;19.54;100.00;98186.50;5041310;28;20025;-56
2022/07/03 04:45:43;;;;;;;25.75;5.43;;;;;;;20.02;100.00;98187.25;5040696;28;20071;-57
2022/07/03 04:48:09;;;;;;;20.63;4.93;;;;;;;18.79;100.00;98180.44;5040024;28;20024;-57
2022/07/03 04:50:34;;;;;;;19.17;4.70;;;;;;;18.59;100.00;98178.38;5039040;28;20040;-57
2022/07/03 04:52:59;;;;;;;24.70;5.18;;;;;;;19.13;100.00;98177.16;5039715;28;20029;-57
2022/07/03 04:55:25;;;;;;;20.92;4.80;;;;;;;19.48;100.00;98176.38;5040275;28;20047;-59
2022/07/03 04:57:50;;;;;;;22.52;5.85;;;;;;;19.89;100.00;98180.34;5040440;28;20035;-59
2022/07/03 05:00:16;;;;;;;17.90;4.70;;;;;;;21.51;100.00;98171.09;5038811;28;20090;-59
2022/07/03 05:02:41;;;;;;;19.75;4.68;;;;;;;21.16;100.00;98178.28;5041258;28;20649;-60
2022/07/03 05:05:07;;;;;;;21.25;4.85;;;;;;;23.93;100.00;98177.38;5039409;28;20116;-60
2022/07/03 05:07:32;;;;;;;21.42;4.72;;;;;;;23.48;100.00;98180.59;5039034;28;20032;-58
2022/07/03 05:09:58;;;;;;;28.50;5.55;;;;;;;26.30;81.79;98172.91;5038994;28;20036;-56
2022/07/03 05:12:23;;;;;;;19.70;4.53;;;;;;;27.49;72.46;98174.66;5039207;28;20060;-56
2022/07/03 05:14:49;;;;;;;16.35;4.15;;;;;;;28.09;61.99;98169.16;5040305;28;20056;-56
2022/07/03 05:17:17;;;;;;;22.35;4.65;;;;;;;27.64;60.98;98174.00;5036193;28;20037;-56
2022/07/03 05:19:42;;;;;;;15.38;3.90;;;;;;;29.87;52.90;98174.78;5038733;28;20410;-58
2022/07/03 05:22:07;;;;;;;16.17;4.13;;;;;;;30.72;52.25;98178.97;5038565;28;20049;-60
2022/07/03 05:24:33;;;;;;;15.00;4.07;;;;;;;30.37;50.94;98178.72;5040319;28;20517;-56
2022/07/03 05:26:58;;;;;;;21.38;4.30;;;;;;;32.60;44.61;98187.84;5039878;28;20510;-56
2022/07/03 05:29:23;;;;;;;15.85;4.15;;;;;;;32.36;43.96;98181.03;5039405;28;20063;-57
2022/07/03 05:31:49;;;;;;;14.40;3.75;;;;;;;32.98;42.52;98181.97;5038591;28;20114;-56
2022/07/03 05:34:14;;;;;;;13.48;3.70;;;;;;;33.50;41.79;98183.16;5040626;28;20155;-57
2022/07/03 05:36:39;;;;;;;13.80;3.67;;;;;;;31.54;43.20;98182.41;5040633;28;20410;-59
2022/07/03 05:41:48;;;;;;;10.70;3.47;;;;;;;33.49;39.67;98180.66;5042797;28;20604;-57
2022/07/03 05:44:14;;;;;;;10.60;3.30;;;;;;;35.27;37.09;98177.06;5044037;28;20056;-57
2022/07/03 05:46:39;;;;;;;13.65;3.53;;;;;;;33.73;38.13;98188.22;5041977;28;20037;-58
2022/07/03 05:49:05;;;;;;;12.70;3.30;;;;;;;35.94;36.23;98187.47;5043244;28;20132;-57
2022/07/03 05:51:30;;;;;;;11.98;3.42;;;;;;;35.18;35.66;98181.91;5041836;28;20041;-57
2022/07/03 05:53:56;;;;;;;10.40;3.22;;;;;;;33.29;39.23;98180.63;5043680;28;20029;-60
2022/07/03 05:56:21;;;;;;;10.30;3.30;;;;;;;35.19;37.51;98185.47;5043241;28;20337;-58
2022/07/03 05:58:46;;;;;;;11.00;3.45;;;;;;;34.64;38.13;98170.41;5043502;28;20036;-58
2022/07/03 06:01:12;;;;;;;10.82;3.15;;;;;;;34.92;37.74;98177.41;5042789;28;20631;-59
2022/07/03 06:03:37;;;;;;;11.48;3.00;;;;;;;35.14;37.23;98170.66;5043406;28;20059;-58
2022/07/03 06:06:03;;;;;;;7.78;2.80;;;;;;;36.07;35.74;98173.78;5042813;28;20037;-59
2022/07/03 06:08:28;;;;;;;10.57;2.88;;;;;;;35.93;36.14;98174.94;5042970;28;20676;-58
2022/07/03 06:10:53;;;;;;;9.40;3.10;;;;;;;35.14;36.80;98183.34;5041761;28;20048;-59
2022/07/03 06:13:19;;;;;;;9.15;3.03;;;;;;;36.26;35.55;98186.34;5043706;28;20501;-60
2022/07/03 06:15:44;;;;;;;9.85;3.17;;;;;;;37.14;34.42;98180.75;5042910;28;20029;-60
2022/07/03 06:18:10;;;;;;;11.80;3.00;;;;;;;36.85;34.96;98183.22;5044030;28;20162;-59
2022/07/03 06:20:35;;;;;;;9.88;2.97;;;;;;;36.79;34.49;98178.69;5040684;28;20067;-58
2022/07/03 06:23:00;;;;;;;8.52;2.80;;;;;;;37.38;34.81;98184.41;5042980;28;20644;-61
2022/07/03 06:25:26;;;;;;;7.20;2.77;;;;;;;37.15;34.87;98177.00;5042300;28;20037;-58
2022/07/03 06:27:51;;;;;;;8.95;3.05;;;;;;;35.28;37.74;98178.72;5042727;28;20256;-59
2022/07/03 06:30:16;;;;;;;7.70;2.70;;;;;;;37.69;34.34;98182.53;5041258;28;20032;-58
2022/07/03 06:32:42;;;;;;;8.70;2.88;;;;;;;36.05;35.76;98173.19;5043199;28;20100;-59
2022/07/03 06:35:08;;;;;;;7.13;2.60;;;;;;;36.24;36.66;98172.16;5042134;28;20036;-58
2022/07/03 06:37:33;;;;;;;6.22;2.58;;;;;;;37.02;35.04;98178.81;5043560;28;20025;-58
2022/07/03 06:39:58;;;;;;;12.43;3.65;;;;;;;35.60;35.11;98165.97;5042003;28;20021;-58
2022/07/03 06:42:24;;;;;;;7.57;2.80;;;;;;;35.99;36.61;98168.63;5042385;28;20029;-58
2022/07/03 06:44:49;;;;;;;10.50;3.25;;;;;;;37.65;34.77;98171.28;5039945;28;20037;-59
2022/07/03 06:47:14;;;;;;;7.72;2.70;;;;;;;37.11;34.25;98170.34;5040618;28;20048;-58
2022/07/03 06:49:40;;;;;;;8.30;2.67;;;;;;;36.28;33.89;98167.97;5041751;28;20662;-58
2022/07/03 06:52:05;;;;;;;8.38;2.70;;;;;;;34.34;36.09;98165.50;5035488;28;20041;-58
2022/07/03 06:54:30;;;;;;;7.32;2.60;;;;;;;34.05;37.79;98163.25;5042620;28;20033;-58
2022/07/03 06:56:56;;;;;;;8.98;2.75;;;;;;;36.20;35.23;98160.09;5042525;28;20045;-58
2022/07/03 06:59:21;;;;;;;8.27;2.70;;;;;;;35.26;35.96;98165.38;5041985;28;20040;-58
2022/07/03 07:01:46;;;;;;;8.20;2.50;;;;;;;35.22;36.11;98163.31;5042259;28;20076;-58
2022/07/03 07:04:12;;;;;;;9.75;2.65;;;;;;;34.58;37.10;98163.16;5042932;28;20110;-60
2022/07/03 07:06:37;;;;;;;8.60;2.80;;;;;;;36.65;33.91;98170.69;5042996;28;20067;-59
2022/07/03 07:09:04;;;;;;;9.25;2.72;;;;;;;38.08;32.45;98164.66;5041889;28;20489;-58
2022/07/03 07:11:29;;;;;;;7.78;3.05;;;;;;;38.41;31.41;98168.69;5040886;28;20045;-59
2022/07/03 07:13:54;;;;;;;7.47;2.80;;;;;;;35.59;34.24;98160.81;5040472;28;20025;-58
2022/07/03 07:16:20;;;;;;;6.70;2.50;;;;;;;37.80;32.47;98165.38;5041491;28;20041;-59
2022/07/03 07:18:45;;;;;;;9.52;3.10;;;;;;;37.83;32.68;98164.91;5041557;28;20098;-58
2022/07/03 07:21:11;;;;;;;6.53;2.40;;;;;;;37.41;33.14;98159.47;5042117;28;20135;-60
2022/07/03 07:23:36;;;;;;;8.13;2.72;;;;;;;36.80;33.13;98167.59;5041667;28;20075;-58
2022/07/03 07:26:03;;;;;;;6.60;2.45;;;;;;;38.32;33.71;98170.13;5041239;28;20044;-58
2022/07/03 07:28:30;;;;;;;15.00;2.72;;;;;;;38.15;31.92;98159.97;5041369;28;20064;-58
2022/07/03 07:30:57;;;;;;;9.23;2.58;;;;;;;37.34;32.63;98159.56;5040624;28;20041;-58
2022/07/03 07:33:23;;;;;;;8.23;2.78;;;;;;;37.06;33.05;98157.44;5042260;28;20048;-58
2022/07/03 07:35:48;;;;;;;8.82;2.60;;;;;;;37.12;32.05;98161.94;5040696;28;20045;-58
2022/07/03 07:38:14;;;;;;;6.13;2.20;;;;;;;39.45;30.07;98156.06;5041454;28;20025;-59
2022/07/03 07:40:40;;;;;;;10.30;3.05;;;;;;;38.20;31.01;98162.00;5039418;28;20039;-58
2022/07/03 07:43:06;;;;;;;5.60;2.13;;;;;;;38.36;31.42;98160.41;5041521;28;20017;-59
2022/07/03 07:45:31;;;;;;;8.73;2.60;;;;;;;36.27;32.45;98160.03;5040948;28;20068;-59
2022/07/03 07:47:56;;;;;;;7.95;2.38;;;;;;;36.89;32.70;98161.84;5041587;28;20445;-60
2022/07/03 07:50:22;;;;;;;7.93;2.70;;;;;;;37.14;32.03;98159.81;5040144;28;20017;-58
2022/07/03 07:52:47;;;;;;;10.65;2.83;;;;;;;35.78;32.76;98157.09;5040694;28;20560;-58
2022/07/03 07:55:12;;;;;;;6.88;2.50;;;;;;;36.81;32.74;98157.56;5042318;28;20117;-58
2022/07/03 07:57:39;;;;;;;7.40;2.78;;;;;;;35.35;34.53;98146.97;5041352;28;20649;-58
2022/07/03 08:00:14;;;;;;;9.20;2.90;;;;;;;36.86;32.83;98152.28;5039868;28;20386;-60
2022/07/03 08:05:38;;;;;;;5.82;2.15;;;;;;;37.23;33.21;98146.78;5040812;28;20133;-57
2022/07/03 08:08:03;;;;;;;7.15;2.67;;;;;;;35.81;34.05;98153.97;5041181;28;20025;-59
2022/07/03 08:10:29;;;;;;;6.53;2.50;;;;;;;36.69;32.69;98145.78;5039313;28;20835;-57
2022/07/03 08:12:54;;;;;;;9.88;2.63;;;;;;;36.42;33.20;98146.91;5040556;28;20287;-58
2022/07/03 08:15:19;;;;;;;6.65;2.50;;;;;;;35.65;33.65;98154.47;5041758;28;20048;-58
2022/07/03 08:17:45;;;;;;;5.15;2.17;;;;;;;36.25;32.45;98154.81;5040787;28;20071;-58
2022/07/03 08:20:10;;;;;;;11.75;3.25;;;;;;;36.81;31.77;98143.97;5039286;28;20025;-58
2022/07/03 08:22:36;;;;;;;6.57;2.40;;;;;;;38.87;30.17;98145.16;5040965;28;20160;-58
2022/07/03 08:25:01;;;;;;;9.18;2.75;;;;;;;38.81;29.47;98146.13;5040022;28;20528;-58
2022/07/03 08:27:26;;;;;;;7.47;2.50;;;;;;;37.65;30.26;98144.06;5038999;28;20075;-59
2022/07/03 08:29:52;;;;;;;7.78;2.50;;;;;;;37.71;30.37;98145.84;5039528;28;20037;-58
2022/07/03 08:32:17;;;;;;;9.43;2.80;;;;;;;38.33;30.33;98139.13;5037600;28;20029;-59
2022/07/03 08:34:43;;;;;;;6.97;2.47;;;;;;;38.19;30.70;98142.06;5041012;28;20025;-58
2022/07/03 08:37:08;;;;;;;9.20;2.75;;;;;;;38.66;30.41;98137.66;5040149;28;20052;-58
2022/07/03 08:39:34;;;;;;;7.07;2.65;;;;;;;36.88;31.24;98150.16;5040076;28;20040;-58
2022/07/03 08:41:59;;;;;;;7.65;2.50;;;;;;;36.53;31.88;98139.91;5039111;28;20079;-58
2022/07/03 08:44:25;;;;;;;6.72;2.25;;;;;;;36.79;32.46;98140.66;5040315;28;20633;-57
2022/07/03 08:46:51;;;;;;;6.40;2.40;;;;;;;36.44;32.68;98139.34;5039741;28;20131;-58
2022/07/03 08:49:18;;;;;;;8.93;2.70;;;;;;;36.05;32.54;98140.59;5039961;28;20540;-58
2022/07/03 08:51:45;;;;;;;6.68;2.40;;;;;;;37.26;30.99;98140.88;5039005;28;20051;-58
2022/07/03 08:54:10;;;;;;;6.13;2.20;;;;;;;36.34;33.23;98144.50;5040329;28;20032;-58
2022/07/03 08:56:36;;;;;;;9.63;2.78;;;;;;;36.55;31.47;98135.06;5039792;28;20037;-58
2022/07/03 08:59:04;;;;;;;7.22;2.35;;;;;;;36.81;31.52;98127.66;5040532;28;20111;-58
2022/07/03 09:01:31;;;;;;;7.95;2.58;;;;;;;36.26;32.28;98129.31;5038952;28;20029;-58
2022/07/03 09:03:58;;;;;;;6.50;2.30;;;;;;;36.54;31.94;98133.41;5040616;28;20021;-58
2022/07/03 09:06:24;;;;;;;7.57;2.22;;;;;;;36.86;31.44;98130.53;5039715;28;20824;-58
2022/07/03 09:08:51;;;;;;;7.72;2.20;;;;;;;37.97;30.06;98125.47;5040578;28;20017;-59
2022/07/03 09:11:17;;;;;;;4.72;2.00;;;;;;;37.72;29.79;98119.44;5039464;28;20122;-58
2022/07/03 09:13:42;;;;;;;7.38;2.58;;;;;;;36.75;31.33;98120.44;5044817;28;20587;-59
2022/07/03 09:16:15;;;;;;;5.45;2.10;;;;;;;36.73;30.92;98119.84;5043572;28;20037;-58
2022/07/03 09:18:43;;;;;;;9.20;3.03;;;;;;;35.86;31.58;98121.56;5043617;28;20437;-59
2022/07/03 09:21:08;;;;;;;6.03;2.22;;;;;;;35.72;31.50;98122.72;5042413;28;20060;-59
2022/07/03 09:23:39;;;;;;;6.60;2.30;;;;;;;37.29;30.86;98123.25;5043948;28;20027;-60
2022/07/03 09:26:06;;;;;;;7.95;2.60;;;;;;;39.08;29.01;98123.78;5043086;28;20069;-59
2022/07/03 09:28:52;;;;;;;5.88;2.35;;;;;;;37.32;30.63;98118.19;5037215;28;20036;-58
2022/07/03 09:31:25;;;;;;;7.88;2.30;;;;;;;36.84;29.84;98116.34;5041105;28;20139;-58
2022/07/03 09:33:54;;;;;;;8.10;2.33;;;;;;;36.86;29.45;98122.38;5043178;28;20029;-58
2022/07/03 09:36:39;;;;;;;7.85;2.50;;;;;;;35.76;31.16;98114.97;5042692;28;20045;-59
2022/07/03 09:39:14;;;;;;;6.70;2.20;;;;;;;36.86;31.49;98119.66;5042095;28;20075;-58
2022/07/03 09:41:56;;;;;;;8.80;2.28;;;;;;;37.26;30.97;98108.25;5041705;28;20036;-58
2022/07/03 09:44:40;;;;;;;10.45;2.30;;;;;;;37.89;28.77;98106.78;5042990;28;20017;-58
2022/07/03 09:47:13;;;;;;;6.25;2.00;;;;;;;36.48;30.77;98107.13;5042460;28;20033;-57
2022/07/03 09:49:51;;;;;;;6.03;2.13;;;;;;;34.22;32.56;98099.53;5042969;28;20445;-58
2022/07/03 09:52:34;;;;;;;11.90;2.90;;;;;;;36.55;31.24;98097.03;5041117;28;20141;-58
2022/07/03 09:55:09;;;;;;;6.80;2.35;;;;;;;36.44;31.24;98092.38;5043616;28;20033;-57
2022/07/03 09:57:51;;;;;;;8.57;2.40;;;;;;;34.61;32.62;98075.22;5042727;28;20406;-58
2022/07/03 10:00:20;;;;;;;9.23;2.70;;;;;;;34.72;32.41;98072.69;5041709;28;20033;-57
2022/07/03 10:02:59;;;;;;;8.73;2.38;;;;;;;33.93;32.72;98080.00;5043733;28;20028;-57
2022/07/03 10:05:35;;;;;;;10.30;2.55;;;;;;;35.25;31.02;98084.25;5042632;28;20039;-59
2022/07/03 10:08:03;;;;;;;10.07;2.30;;;;;;;36.25;30.10;98078.78;5043590;28;20025;-58
2022/07/03 10:10:31;;;;;;;15.38;2.95;;;;;;;36.31;30.58;98078.94;5041439;28;20055;-57
2022/07/03 10:12:57;;;;;;;11.70;2.85;;;;;;;35.31;31.02;98081.50;5043051;28;20039;-57
2022/07/03 10:15:24;;;;;;;11.90;2.72;;;;;;;35.24;31.57;98085.34;5042866;28;20033;-57
2022/07/03 10:17:56;;;;;;;11.55;2.58;;;;;;;35.93;30.94;98080.78;5042842;28;20029;-57
2022/07/03 10:20:30;;;;;;;12.07;2.75;;;;;;;38.45;28.38;98071.78;5036754;28;20029;-58
2022/07/03 10:22:56;;;;;;;10.13;2.45;;;;;;;36.63;30.27;98083.13;5042848;28;20136;-57
2022/07/03 10:25:21;;;;;;;10.68;2.67;;;;;;;35.78;28.54;98070.28;5042229;28;20045;-58
2022/07/03 10:27:48;;;;;;;8.98;2.30;;;;;;;36.54;28.07;98073.66;5038907;28;20043;-58
2022/07/03 10:30:16;;;;;;;13.88;3.00;;;;;;;35.96;29.32;98077.63;5038585;28;20298;-57
2022/07/03 10:32:44;;;;;;;10.10;2.30;;;;;;;35.42;29.16;98074.56;5042685;28;20025;-58
2022/07/03 10:35:11;;;;;;;11.35;2.40;;;;;;;36.32;28.19;98078.72;5042565;28;20021;-58
2022/07/03 10:37:48;;;;;;;11.55;2.35;;;;;;;36.04;29.05;98073.78;5040679;28;20441;-58
2022/07/03 10:46:16;;;;;;;11.95;2.40;;;;;;;36.43;28.63;98072.53;5042180;28;20129;-59
2022/07/03 10:49:01;;;;;;;15.43;3.25;;;;;;;35.56;28.69;98072.53;5042030;28;20031;-57
2022/07/03 10:51:28;;;;;;;10.63;2.45;;;;;;;36.96;27.81;98060.13;5040907;28;20585;-58
2022/07/03 10:54:17;;;;;;;12.38;2.45;;;;;;;35.35;28.77;98062.94;5042429;28;20025;-58
2022/07/03 10:57:13;;;;;;;9.90;2.47;;;;;;;34.93;29.70;98051.72;5039383;28;20127;-59
2022/07/03 10:59:42;;;;;;;10.02;2.47;;;;;;;36.21;28.79;98058.59;5039569;28;20413;-57
2022/07/03 11:02:33;;;;;;;10.50;2.40;;;;;;;35.58;29.14;98064.19;5039443;28;20041;-58
2022/07/03 11:04:58;;;;;;;12.32;2.20;;;;;;;34.69;29.15;98054.16;5041454;28;20028;-57
2022/07/03 11:07:25;;;;;;;10.85;2.30;;;;;;;34.64;28.24;98053.94;5041613;28;20040;-58
2022/07/03 11:10:05;;;;;;;10.68;2.47;;;;;;;33.88;29.61;98047.34;5041720;28;20021;-57
2022/07/03 11:12:58;;;;;;;13.80;2.87;;;;;;;35.51;28.30;98048.81;5041436;28;20051;-60
2022/07/03 11:15:44;;;;;;;13.85;2.72;;;;;;;34.65;29.58;98043.94;5041400;28;20668;-59
2022/07/03 11:18:29;;;;;;;11.13;2.40;;;;;;;35.23;28.69;98045.72;5042148;28;20048;-58
2022/07/03 11:20:54;;;;;;;14.95;2.75;;;;;;;34.61;27.62;98035.44;5040134;28;20065;-57
2022/07/03 11:23:25;;;;;;;11.48;2.40;;;;;;;35.20;27.62;98038.84;5030978;28;20502;-57
2022/07/03 11:25:56;;;;;;;14.05;2.88;;;;;;;36.11;26.77;98036.53;5040030;28;20568;-58
2022/07/03 11:28:33;;;;;;;16.25;3.30;;;;;;;35.39;27.47;98025.34;5038239;28;20017;-57
2022/07/03 11:31:13;;;;;;;14.77;2.92;;;;;;;35.95;27.46;98026.28;5038062;28;20048;-58
2022/07/03 11:33:58;;;;;;;10.40;2.33;;;;;;;35.50;27.81;98028.16;5041342;28;20029;-57
2022/07/03 11:36:25;;;;;;;12.60;2.65;;;;;;;33.90;27.79;98026.31;5040137;28;20147;-58
2022/07/03 11:38:59;;;;;;;10.35;2.20;;;;;;;33.90;27.29;98015.47;5041299;28;20048;-58
2022/07/03 11:41:36;;;;;;;12.65;2.55;;;;;;;33.44;28.13;98010.97;5039799;28;20033;-57
2022/07/03 11:44:07;;;;;;;11.95;2.58;;;;;;;34.59;28.22;98013.13;5041472;28;20032;-57
2022/07/03 11:46:36;;;;;;;16.75;3.05;;;;;;;34.12;28.17;98012.50;5040123;28;20041;-57
2022/07/03 11:49:08;;;;;;;14.52;2.60;;;;;;;34.32;28.69;98009.75;5040733;28;20467;-57